sensor_id;sensor_type;location;lat;lon;timestamp;P1;durP1;ratioP1;P2;durP2;ratioP2
46222;SDS011;31943;51.410;7.564;2023-04-06T00:00:52;10.82;;;7.28;;
46222;SDS011;31943;51.410;7.564;2023-04-06T00:03:20;10.63;;;7.35;;
46222;SDS011;31943;51.410;7.564;2023-04-06T00:05:46;8.02;;;7.00;;
46222;SDS011;31943;51.410;7.564;2023-04-06T00:08:12;7.38;;;6.38;;
46222;SDS011;31943;51.410;7.564;2023-04-06T00:10:38;12.82;;;7.50;;
46222;SDS011;31943;51.410;7.564;2023-04-06T00:13:04;11.88;;;7.03;;
46222;SDS011;31943;51.410;7.564;2023-04-06T00:15:30;10.95;;;6.80;;
46222;SDS011;31943;51.410;7.564;2023-04-06T00:17:56;8.18;;;6.60;;
46222;SDS011;31943;51.410;7.564;2023-04-06T00:20:23;11.07;;;6.63;;
46222;SDS011;31943;51.410;7.564;2023-04-06T00:22:49;8.90;;;6.20;;
46222;SDS011;31943;51.410;7.564;2023-04-06T00:25:15;10.02;;;6.38;;
46222;SDS011;31943;51.410;7.564;2023-04-06T00:27:40;8.57;;;6.57;;
46222;SDS011;31943;51.410;7.564;2023-04-06T00:30:06;10.20;;;6.45;;
46222;SDS011;31943;51.410;7.564;2023-04-06T00:32:33;10.18;;;7.13;;
46222;SDS011;31943;51.410;7.564;2023-04-06T00:35:02;11.85;;;7.22;;
46222;SDS011;31943;51.410;7.564;2023-04-06T00:37:29;9.13;;;6.68;;
46222;SDS011;31943;51.410;7.564;2023-04-06T00:39:54;8.43;;;6.93;;
46222;SDS011;31943;51.410;7.564;2023-04-06T00:42:22;9.85;;;7.32;;
46222;SDS011;31943;51.410;7.564;2023-04-06T00:44:48;9.57;;;6.97;;
46222;SDS011;31943;51.410;7.564;2023-04-06T00:47:14;8.38;;;6.68;;
46222;SDS011;31943;51.410;7.564;2023-04-06T00:49:40;10.77;;;6.82;;
46222;SDS011;31943;51.410;7.564;2023-04-06T00:52:05;9.32;;;6.75;;
46222;SDS011;31943;51.410;7.564;2023-04-06T00:54:36;11.05;;;6.57;;
46222;SDS011;31943;51.410;7.564;2023-04-06T00:57:02;9.65;;;6.85;;
46222;SDS011;31943;51.410;7.564;2023-04-06T00:59:28;10.43;;;7.03;;
46222;SDS011;31943;51.410;7.564;2023-04-06T01:01:54;8.13;;;6.13;;
46222;SDS011;31943;51.410;7.564;2023-04-06T01:04:21;7.65;;;6.30;;
46222;SDS011;31943;51.410;7.564;2023-04-06T01:06:46;9.82;;;6.68;;
46222;SDS011;31943;51.410;7.564;2023-04-06T01:09:12;6.85;;;6.13;;
46222;SDS011;31943;51.410;7.564;2023-04-06T01:11:40;8.13;;;6.70;;
46222;SDS011;31943;51.410;7.564;2023-04-06T01:14:06;8.23;;;6.32;;
46222;SDS011;31943;51.410;7.564;2023-04-06T01:16:37;10.23;;;7.45;;
46222;SDS011;31943;51.410;7.564;2023-04-06T01:19:06;13.02;;;7.75;;
46222;SDS011;31943;51.410;7.564;2023-04-06T01:21:33;8.40;;;6.97;;
46222;SDS011;31943;51.410;7.564;2023-04-06T01:24:04;9.60;;;7.55;;
46222;SDS011;31943;51.410;7.564;2023-04-06T01:26:31;9.93;;;7.25;;
46222;SDS011;31943;51.410;7.564;2023-04-06T01:29:02;12.73;;;7.13;;
46222;SDS011;31943;51.410;7.564;2023-04-06T01:31:30;9.00;;;6.80;;
46222;SDS011;31943;51.410;7.564;2023-04-06T01:33:58;8.77;;;6.70;;
46222;SDS011;31943;51.410;7.564;2023-04-06T01:36:24;9.63;;;6.53;;
46222;SDS011;31943;51.410;7.564;2023-04-06T01:38:50;8.23;;;6.43;;
46222;SDS011;31943;51.410;7.564;2023-04-06T01:41:18;8.55;;;6.43;;
46222;SDS011;31943;51.410;7.564;2023-04-06T01:43:44;17.40;;;7.18;;
46222;SDS011;31943;51.410;7.564;2023-04-06T01:46:12;7.30;;;5.97;;
46222;SDS011;31943;51.410;7.564;2023-04-06T01:48:38;13.63;;;8.60;;
46222;SDS011;31943;51.410;7.564;2023-04-06T01:51:05;8.65;;;6.43;;
46222;SDS011;31943;51.410;7.564;2023-04-06T01:53:32;8.55;;;6.53;;
46222;SDS011;31943;51.410;7.564;2023-04-06T01:55:58;11.80;;;7.63;;
46222;SDS011;31943;51.410;7.564;2023-04-06T01:58:25;12.55;;;6.95;;
46222;SDS011;31943;51.410;7.564;2023-04-06T02:00:51;10.32;;;7.40;;
46222;SDS011;31943;51.410;7.564;2023-04-06T02:03:17;10.65;;;6.55;;
46222;SDS011;31943;51.410;7.564;2023-04-06T02:05:43;9.32;;;6.60;;
46222;SDS011;31943;51.410;7.564;2023-04-06T02:08:09;7.95;;;6.20;;
46222;SDS011;31943;51.410;7.564;2023-04-06T02:10:36;7.80;;;6.13;;
46222;SDS011;31943;51.410;7.564;2023-04-06T02:13:05;11.07;;;6.70;;
46222;SDS011;31943;51.410;7.564;2023-04-06T02:15:32;6.97;;;5.72;;
46222;SDS011;31943;51.410;7.564;2023-04-06T02:17:58;6.63;;;5.15;;
46222;SDS011;31943;51.410;7.564;2023-04-06T02:20:24;9.40;;;6.53;;
46222;SDS011;31943;51.410;7.564;2023-04-06T02:22:50;7.78;;;6.32;;
46222;SDS011;31943;51.410;7.564;2023-04-06T02:25:16;9.98;;;6.97;;
46222;SDS011;31943;51.410;7.564;2023-04-06T02:27:42;9.63;;;6.97;;
46222;SDS011;31943;51.410;7.564;2023-04-06T02:30:10;7.72;;;6.03;;
46222;SDS011;31943;51.410;7.564;2023-04-06T02:32:41;11.93;;;6.78;;
46222;SDS011;31943;51.410;7.564;2023-04-06T02:35:07;6.28;;;5.65;;
46222;SDS011;31943;51.410;7.564;2023-04-06T02:37:35;9.50;;;6.00;;
46222;SDS011;31943;51.410;7.564;2023-04-06T02:40:00;6.15;;;5.55;;
46222;SDS011;31943;51.410;7.564;2023-04-06T02:42:26;7.43;;;5.82;;
46222;SDS011;31943;51.410;7.564;2023-04-06T02:44:52;7.70;;;6.03;;
46222;SDS011;31943;51.410;7.564;2023-04-06T02:47:18;10.25;;;6.05;;
46222;SDS011;31943;51.410;7.564;2023-04-06T02:49:49;13.32;;;6.13;;
46222;SDS011;31943;51.410;7.564;2023-04-06T02:52:14;8.05;;;5.68;;
46222;SDS011;31943;51.410;7.564;2023-04-06T02:54:41;7.05;;;6.15;;
46222;SDS011;31943;51.410;7.564;2023-04-06T02:57:10;8.65;;;6.03;;
46222;SDS011;31943;51.410;7.564;2023-04-06T02:59:35;10.48;;;6.00;;
46222;SDS011;31943;51.410;7.564;2023-04-06T03:02:01;8.65;;;6.68;;
46222;SDS011;31943;51.410;7.564;2023-04-06T03:04:27;10.55;;;6.57;;
46222;SDS011;31943;51.410;7.564;2023-04-06T03:06:55;7.57;;;5.88;;
46222;SDS011;31943;51.410;7.564;2023-04-06T03:09:20;10.13;;;6.85;;
46222;SDS011;31943;51.410;7.564;2023-04-06T03:11:46;8.43;;;6.13;;
46222;SDS011;31943;51.410;7.564;2023-04-06T03:14:12;9.23;;;5.53;;
46222;SDS011;31943;51.410;7.564;2023-04-06T03:16:38;12.55;;;7.30;;
46222;SDS011;31943;51.410;7.564;2023-04-06T03:19:06;9.30;;;7.05;;
46222;SDS011;31943;51.410;7.564;2023-04-06T03:21:32;8.18;;;6.38;;
46222;SDS011;31943;51.410;7.564;2023-04-06T03:24:04;7.80;;;5.88;;
46222;SDS011;31943;51.410;7.564;2023-04-06T03:26:32;10.23;;;6.40;;
46222;SDS011;31943;51.410;7.564;2023-04-06T03:28:59;10.07;;;5.82;;
46222;SDS011;31943;51.410;7.564;2023-04-06T03:31:30;7.55;;;6.38;;
46222;SDS011;31943;51.410;7.564;2023-04-06T03:33:57;8.98;;;6.43;;
46222;SDS011;31943;51.410;7.564;2023-04-06T03:36:23;7.38;;;5.88;;
46222;SDS011;31943;51.410;7.564;2023-04-06T03:38:49;8.18;;;6.18;;
46222;SDS011;31943;51.410;7.564;2023-04-06T03:41:18;7.88;;;6.32;;
46222;SDS011;31943;51.410;7.564;2023-04-06T03:43:45;7.82;;;6.03;;
46222;SDS011;31943;51.410;7.564;2023-04-06T03:46:11;9.68;;;6.43;;
46222;SDS011;31943;51.410;7.564;2023-04-06T03:48:37;7.40;;;6.32;;
46222;SDS011;31943;51.410;7.564;2023-04-06T03:51:03;7.47;;;6.25;;
46222;SDS011;31943;51.410;7.564;2023-04-06T03:53:30;9.10;;;6.43;;
46222;SDS011;31943;51.410;7.564;2023-04-06T03:55:55;7.25;;;5.97;;
46222;SDS011;31943;51.410;7.564;2023-04-06T03:58:25;7.57;;;5.90;;
46222;SDS011;31943;51.410;7.564;2023-04-06T04:00:51;9.55;;;5.60;;
46222;SDS011;31943;51.410;7.564;2023-04-06T04:03:16;8.60;;;5.80;;
46222;SDS011;31943;51.410;7.564;2023-04-06T04:05:42;9.73;;;6.03;;
46222;SDS011;31943;51.410;7.564;2023-04-06T04:08:08;7.32;;;5.70;;
46222;SDS011;31943;51.410;7.564;2023-04-06T04:10:35;9.25;;;6.25;;
46222;SDS011;31943;51.410;7.564;2023-04-06T04:13:02;8.73;;;6.25;;
46222;SDS011;31943;51.410;7.564;2023-04-06T04:15:31;9.13;;;6.25;;
46222;SDS011;31943;51.410;7.564;2023-04-06T04:17:59;8.23;;;6.57;;
46222;SDS011;31943;51.410;7.564;2023-04-06T04:20:36;8.65;;;6.57;;
46222;SDS011;31943;51.410;7.564;2023-04-06T04:23:02;10.07;;;6.68;;
46222;SDS011;31943;51.410;7.564;2023-04-06T04:25:28;7.93;;;5.68;;
46222;SDS011;31943;51.410;7.564;2023-04-06T04:27:53;8.60;;;5.15;;
46222;SDS011;31943;51.410;7.564;2023-04-06T04:30:22;7.90;;;5.40;;
46222;SDS011;31943;51.410;7.564;2023-04-06T04:32:54;7.32;;;5.60;;
46222;SDS011;31943;51.410;7.564;2023-04-06T04:35:20;7.40;;;5.45;;
46222;SDS011;31943;51.410;7.564;2023-04-06T04:37:45;8.35;;;6.18;;
46222;SDS011;31943;51.410;7.564;2023-04-06T04:40:11;8.32;;;5.57;;
46222;SDS011;31943;51.410;7.564;2023-04-06T04:42:37;7.70;;;6.25;;
46222;SDS011;31943;51.410;7.564;2023-04-06T04:45:08;8.70;;;6.27;;
46222;SDS011;31943;51.410;7.564;2023-04-06T04:47:35;8.48;;;6.38;;
46222;SDS011;31943;51.410;7.564;2023-04-06T04:50:02;9.90;;;6.20;;
46222;SDS011;31943;51.410;7.564;2023-04-06T04:52:29;10.82;;;6.20;;
46222;SDS011;31943;51.410;7.564;2023-04-06T04:54:55;9.05;;;6.63;;
46222;SDS011;31943;51.410;7.564;2023-04-06T04:57:22;9.23;;;6.32;;
46222;SDS011;31943;51.410;7.564;2023-04-06T04:59:47;10.18;;;6.53;;
46222;SDS011;31943;51.410;7.564;2023-04-06T05:02:13;9.98;;;7.25;;
46222;SDS011;31943;51.410;7.564;2023-04-06T05:04:39;9.13;;;6.78;;
46222;SDS011;31943;51.410;7.564;2023-04-06T05:07:06;9.40;;;6.63;;
46222;SDS011;31943;51.410;7.564;2023-04-06T05:09:33;8.77;;;6.38;;
46222;SDS011;31943;51.410;7.564;2023-04-06T05:11:59;7.97;;;6.13;;
46222;SDS011;31943;51.410;7.564;2023-04-06T05:14:25;11.93;;;6.28;;
46222;SDS011;31943;51.410;7.564;2023-04-06T05:16:51;10.65;;;6.47;;
46222;SDS011;31943;51.410;7.564;2023-04-06T05:19:19;8.80;;;6.53;;
46222;SDS011;31943;51.410;7.564;2023-04-06T05:21:45;7.82;;;6.70;;
46222;SDS011;31943;51.410;7.564;2023-04-06T05:24:14;8.98;;;6.30;;
46222;SDS011;31943;51.410;7.564;2023-04-06T05:26:44;9.13;;;6.35;;
46222;SDS011;31943;51.410;7.564;2023-04-06T05:29:11;8.25;;;6.55;;
46222;SDS011;31943;51.410;7.564;2023-04-06T05:31:38;11.55;;;6.45;;
46222;SDS011;31943;51.410;7.564;2023-04-06T05:34:04;10.55;;;6.72;;
46222;SDS011;31943;51.410;7.564;2023-04-06T05:36:32;10.30;;;6.80;;
46222;SDS011;31943;51.410;7.564;2023-04-06T05:38:57;8.10;;;6.53;;
46222;SDS011;31943;51.410;7.564;2023-04-06T05:41:26;9.68;;;6.82;;
46222;SDS011;31943;51.410;7.564;2023-04-06T05:43:51;9.18;;;6.32;;
46222;SDS011;31943;51.410;7.564;2023-04-06T05:46:18;9.80;;;6.63;;
46222;SDS011;31943;51.410;7.564;2023-04-06T05:48:44;10.15;;;5.93;;
46222;SDS011;31943;51.410;7.564;2023-04-06T05:51:09;9.90;;;6.35;;
46222;SDS011;31943;51.410;7.564;2023-04-06T05:53:35;8.73;;;6.68;;
46222;SDS011;31943;51.410;7.564;2023-04-06T05:56:01;9.13;;;7.18;;
46222;SDS011;31943;51.410;7.564;2023-04-06T05:58:29;8.23;;;7.03;;
46222;SDS011;31943;51.410;7.564;2023-04-06T06:00:56;8.98;;;6.93;;
46222;SDS011;31943;51.410;7.564;2023-04-06T06:03:22;12.07;;;8.23;;
46222;SDS011;31943;51.410;7.564;2023-04-06T06:05:47;11.50;;;6.47;;
46222;SDS011;31943;51.410;7.564;2023-04-06T06:08:13;13.80;;;7.47;;
46222;SDS011;31943;51.410;7.564;2023-04-06T06:10:39;9.73;;;7.03;;
46222;SDS011;31943;51.410;7.564;2023-04-06T06:13:04;10.13;;;7.57;;
46222;SDS011;31943;51.410;7.564;2023-04-06T06:15:31;10.45;;;7.68;;
46222;SDS011;31943;51.410;7.564;2023-04-06T06:17:57;11.60;;;7.93;;
46222;SDS011;31943;51.410;7.564;2023-04-06T06:20:23;11.35;;;7.95;;
46222;SDS011;31943;51.410;7.564;2023-04-06T06:22:48;12.10;;;8.60;;
46222;SDS011;31943;51.410;7.564;2023-04-06T06:25:14;9.95;;;8.10;;
46222;SDS011;31943;51.410;7.564;2023-04-06T06:27:41;12.88;;;8.38;;
46222;SDS011;31943;51.410;7.564;2023-04-06T06:30:07;14.32;;;8.50;;
46222;SDS011;31943;51.410;7.564;2023-04-06T06:32:35;12.07;;;8.10;;
46222;SDS011;31943;51.410;7.564;2023-04-06T06:35:00;11.52;;;7.80;;
46222;SDS011;31943;51.410;7.564;2023-04-06T06:37:26;11.50;;;8.60;;
46222;SDS011;31943;51.410;7.564;2023-04-06T06:39:52;15.02;;;8.20;;
46222;SDS011;31943;51.410;7.564;2023-04-06T06:42:18;14.45;;;8.57;;
46222;SDS011;31943;51.410;7.564;2023-04-06T06:44:44;12.88;;;9.30;;
46222;SDS011;31943;51.410;7.564;2023-04-06T06:47:10;10.15;;;8.95;;
46222;SDS011;31943;51.410;7.564;2023-04-06T06:49:38;11.43;;;8.40;;
46222;SDS011;31943;51.410;7.564;2023-04-06T06:52:04;13.52;;;9.73;;
46222;SDS011;31943;51.410;7.564;2023-04-06T06:54:30;12.50;;;10.07;;
46222;SDS011;31943;51.410;7.564;2023-04-06T06:56:56;14.25;;;10.18;;
46222;SDS011;31943;51.410;7.564;2023-04-06T06:59:22;15.98;;;9.85;;
46222;SDS011;31943;51.410;7.564;2023-04-06T07:01:48;14.10;;;9.40;;
46222;SDS011;31943;51.410;7.564;2023-04-06T07:04:14;12.63;;;9.43;;
46222;SDS011;31943;51.410;7.564;2023-04-06T07:06:45;14.73;;;10.32;;
46222;SDS011;31943;51.410;7.564;2023-04-06T07:09:10;14.05;;;9.38;;
46222;SDS011;31943;51.410;7.564;2023-04-06T07:11:36;12.85;;;9.13;;
46222;SDS011;31943;51.410;7.564;2023-04-06T07:14:02;11.98;;;9.43;;
46222;SDS011;31943;51.410;7.564;2023-04-06T07:16:29;12.05;;;8.75;;
46222;SDS011;31943;51.410;7.564;2023-04-06T07:18:54;13.48;;;8.73;;
46222;SDS011;31943;51.410;7.564;2023-04-06T07:21:20;14.32;;;8.85;;
46222;SDS011;31943;51.410;7.564;2023-04-06T07:23:47;12.27;;;9.63;;
46222;SDS011;31943;51.410;7.564;2023-04-06T07:26:13;13.25;;;9.45;;
46222;SDS011;31943;51.410;7.564;2023-04-06T07:28:39;13.88;;;9.05;;
46222;SDS011;31943;51.410;7.564;2023-04-06T07:31:05;12.27;;;8.82;;
46222;SDS011;31943;51.410;7.564;2023-04-06T07:33:30;13.35;;;9.32;;
46222;SDS011;31943;51.410;7.564;2023-04-06T07:35:56;15.68;;;9.50;;
46222;SDS011;31943;51.410;7.564;2023-04-06T07:38:22;12.73;;;9.27;;
46222;SDS011;31943;51.410;7.564;2023-04-06T07:40:49;12.93;;;8.65;;
46222;SDS011;31943;51.410;7.564;2023-04-06T07:43:14;15.07;;;9.68;;
46222;SDS011;31943;51.410;7.564;2023-04-06T07:45:41;13.57;;;9.00;;
46222;SDS011;31943;51.410;7.564;2023-04-06T07:48:07;10.80;;;8.02;;
46222;SDS011;31943;51.410;7.564;2023-04-06T07:50:32;12.20;;;8.13;;
46222;SDS011;31943;51.410;7.564;2023-04-06T07:52:58;11.95;;;8.27;;
46222;SDS011;31943;51.410;7.564;2023-04-06T07:55:24;13.40;;;8.48;;
46222;SDS011;31943;51.410;7.564;2023-04-06T07:57:52;11.70;;;8.63;;
46222;SDS011;31943;51.410;7.564;2023-04-06T08:00:18;13.05;;;9.25;;
46222;SDS011;31943;51.410;7.564;2023-04-06T08:02:44;14.88;;;9.57;;
46222;SDS011;31943;51.410;7.564;2023-04-06T08:05:09;13.13;;;9.73;;
46222;SDS011;31943;51.410;7.564;2023-04-06T08:07:38;9.70;;;7.00;;
46222;SDS011;31943;51.410;7.564;2023-04-06T08:10:06;9.85;;;6.10;;
46222;SDS011;31943;51.410;7.564;2023-04-06T08:12:32;8.45;;;5.75;;
46222;SDS011;31943;51.410;7.564;2023-04-06T08:15:00;6.90;;;5.18;;
46222;SDS011;31943;51.410;7.564;2023-04-06T08:17:25;8.30;;;5.45;;
46222;SDS011;31943;51.410;7.564;2023-04-06T08:19:54;6.63;;;5.15;;
46222;SDS011;31943;51.410;7.564;2023-04-06T08:22:20;8.20;;;6.63;;
46222;SDS011;31943;51.410;7.564;2023-04-06T08:24:46;7.40;;;5.40;;
46222;SDS011;31943;51.410;7.564;2023-04-06T08:27:11;7.57;;;5.15;;
46222;SDS011;31943;51.410;7.564;2023-04-06T08:29:37;6.45;;;5.10;;
46222;SDS011;31943;51.410;7.564;2023-04-06T08:32:04;7.75;;;5.45;;
46222;SDS011;31943;51.410;7.564;2023-04-06T08:34:31;7.55;;;6.10;;
46222;SDS011;31943;51.410;7.564;2023-04-06T08:36:57;8.02;;;5.68;;
46222;SDS011;31943;51.410;7.564;2023-04-06T08:39:23;9.48;;;5.53;;
46222;SDS011;31943;51.410;7.564;2023-04-06T08:41:48;7.68;;;5.72;;
46222;SDS011;31943;51.410;7.564;2023-04-06T08:44:14;9.73;;;5.90;;
46222;SDS011;31943;51.410;7.564;2023-04-06T08:46:42;7.93;;;6.00;;
46222;SDS011;31943;51.410;7.564;2023-04-06T08:49:09;7.60;;;5.60;;
46222;SDS011;31943;51.410;7.564;2023-04-06T08:51:36;8.70;;;5.78;;
46222;SDS011;31943;51.410;7.564;2023-04-06T08:54:02;8.85;;;6.20;;
46222;SDS011;31943;51.410;7.564;2023-04-06T08:56:28;8.98;;;5.93;;
46222;SDS011;31943;51.410;7.564;2023-04-06T08:58:54;11.10;;;5.80;;
46222;SDS011;31943;51.410;7.564;2023-04-06T09:01:21;7.95;;;5.88;;
46222;SDS011;31943;51.410;7.564;2023-04-06T09:03:50;9.35;;;5.90;;
46222;SDS011;31943;51.410;7.564;2023-04-06T09:06:22;7.75;;;6.18;;
46222;SDS011;31943;51.410;7.564;2023-04-06T09:08:48;12.52;;;6.85;;
46222;SDS011;31943;51.410;7.564;2023-04-06T09:11:14;8.43;;;6.47;;
46222;SDS011;31943;51.410;7.564;2023-04-06T09:13:44;10.32;;;6.88;;
46222;SDS011;31943;51.410;7.564;2023-04-06T09:16:11;7.13;;;6.13;;
46222;SDS011;31943;51.410;7.564;2023-04-06T09:18:37;8.68;;;6.78;;
46222;SDS011;31943;51.410;7.564;2023-04-06T09:21:03;9.55;;;6.80;;
46222;SDS011;31943;51.410;7.564;2023-04-06T09:23:34;8.77;;;6.38;;
46222;SDS011;31943;51.410;7.564;2023-04-06T09:26:06;9.93;;;7.40;;
46222;SDS011;31943;51.410;7.564;2023-04-06T09:28:48;10.15;;;7.05;;
46222;SDS011;31943;51.410;7.564;2023-04-06T09:31:14;10.95;;;7.55;;
46222;SDS011;31943;51.410;7.564;2023-04-06T09:33:41;10.63;;;6.75;;
46222;SDS011;31943;51.410;7.564;2023-04-06T09:36:10;12.30;;;6.63;;
46222;SDS011;31943;51.410;7.564;2023-04-06T09:38:39;9.30;;;6.78;;
46222;SDS011;31943;51.410;7.564;2023-04-06T09:41:20;9.68;;;7.30;;
46222;SDS011;31943;51.410;7.564;2023-04-06T09:43:47;9.68;;;7.40;;
46222;SDS011;31943;51.410;7.564;2023-04-06T09:46:14;12.77;;;7.90;;
46222;SDS011;31943;51.410;7.564;2023-04-06T09:48:40;10.25;;;7.78;;
46222;SDS011;31943;51.410;7.564;2023-04-06T09:51:07;13.05;;;7.55;;
46222;SDS011;31943;51.410;7.564;2023-04-06T09:53:37;11.20;;;7.57;;
46222;SDS011;31943;51.410;7.564;2023-04-06T09:56:07;12.15;;;7.47;;
46222;SDS011;31943;51.410;7.564;2023-04-06T09:58:42;13.32;;;8.88;;
46222;SDS011;31943;51.410;7.564;2023-04-06T10:01:12;12.82;;;9.68;;
46222;SDS011;31943;51.410;7.564;2023-04-06T10:03:45;12.32;;;9.80;;
46222;SDS011;31943;51.410;7.564;2023-04-06T10:06:17;14.57;;;10.20;;
46222;SDS011;31943;51.410;7.564;2023-04-06T10:08:49;15.35;;;10.65;;
46222;SDS011;31943;51.410;7.564;2023-04-06T10:11:18;14.02;;;10.82;;
46222;SDS011;31943;51.410;7.564;2023-04-06T10:13:45;15.90;;;11.85;;
46222;SDS011;31943;51.410;7.564;2023-04-06T10:16:13;14.23;;;11.20;;
46222;SDS011;31943;51.410;7.564;2023-04-06T10:18:41;15.50;;;11.15;;
46222;SDS011;31943;51.410;7.564;2023-04-06T10:21:11;15.93;;;11.30;;
46222;SDS011;31943;51.410;7.564;2023-04-06T10:23:43;16.70;;;11.80;;
46222;SDS011;31943;51.410;7.564;2023-04-06T10:26:15;15.57;;;11.52;;
46222;SDS011;31943;51.410;7.564;2023-04-06T10:28:44;15.40;;;11.73;;
46222;SDS011;31943;51.410;7.564;2023-04-06T10:31:11;18.63;;;11.98;;
46222;SDS011;31943;51.410;7.564;2023-04-06T10:33:37;16.88;;;12.85;;
46222;SDS011;31943;51.410;7.564;2023-04-06T10:36:09;16.42;;;12.40;;
46222;SDS011;31943;51.410;7.564;2023-04-06T10:38:37;17.10;;;13.35;;
46222;SDS011;31943;51.410;7.564;2023-04-06T10:41:03;16.52;;;11.85;;
46222;SDS011;31943;51.410;7.564;2023-04-06T10:43:32;16.50;;;12.00;;
46222;SDS011;31943;51.410;7.564;2023-04-06T10:46:00;20.65;;;13.25;;
46222;SDS011;31943;51.410;7.564;2023-04-06T10:48:35;18.10;;;13.45;;
46222;SDS011;31943;51.410;7.564;2023-04-06T10:51:06;22.13;;;12.95;;
46222;SDS011;31943;51.410;7.564;2023-04-06T10:53:33;18.03;;;12.73;;
46222;SDS011;31943;51.410;7.564;2023-04-06T10:55:59;17.17;;;13.48;;
46222;SDS011;31943;51.410;7.564;2023-04-06T10:58:26;16.17;;;12.43;;
46222;SDS011;31943;51.410;7.564;2023-04-06T11:00:57;17.63;;;12.93;;
46222;SDS011;31943;51.410;7.564;2023-04-06T11:03:27;15.85;;;13.60;;
46222;SDS011;31943;51.410;7.564;2023-04-06T11:06:07;15.60;;;12.50;;
46222;SDS011;31943;51.410;7.564;2023-04-06T11:08:33;16.45;;;12.77;;
46222;SDS011;31943;51.410;7.564;2023-04-06T11:11:05;16.38;;;12.30;;
46222;SDS011;31943;51.410;7.564;2023-04-06T11:13:40;17.50;;;12.85;;
46222;SDS011;31943;51.410;7.564;2023-04-06T11:16:11;14.55;;;11.38;;
46222;SDS011;31943;51.410;7.564;2023-04-06T11:18:37;14.60;;;11.80;;
46222;SDS011;31943;51.410;7.564;2023-04-06T11:21:04;13.80;;;11.75;;
46222;SDS011;31943;51.410;7.564;2023-04-06T11:23:31;17.60;;;11.85;;
46222;SDS011;31943;51.410;7.564;2023-04-06T11:25:57;14.35;;;10.93;;
46222;SDS011;31943;51.410;7.564;2023-04-06T11:28:25;16.45;;;11.88;;
46222;SDS011;31943;51.410;7.564;2023-04-06T11:30:51;16.20;;;11.48;;
46222;SDS011;31943;51.410;7.564;2023-04-06T11:33:22;14.77;;;11.48;;
46222;SDS011;31943;51.410;7.564;2023-04-06T11:35:48;14.85;;;11.02;;
46222;SDS011;31943;51.410;7.564;2023-04-06T11:38:14;14.60;;;10.38;;
46222;SDS011;31943;51.410;7.564;2023-04-06T11:40:39;13.27;;;10.60;;
46222;SDS011;31943;51.410;7.564;2023-04-06T11:43:05;15.30;;;11.95;;
46222;SDS011;31943;51.410;7.564;2023-04-06T11:45:39;15.82;;;11.95;;
46222;SDS011;31943;51.410;7.564;2023-04-06T11:48:06;15.07;;;12.60;;
46222;SDS011;31943;51.410;7.564;2023-04-06T11:50:45;17.88;;;13.68;;
46222;SDS011;31943;51.410;7.564;2023-04-06T11:53:12;16.20;;;13.30;;
46222;SDS011;31943;51.410;7.564;2023-04-06T11:55:38;19.92;;;14.13;;
46222;SDS011;31943;51.410;7.564;2023-04-06T11:58:03;18.13;;;14.70;;
46222;SDS011;31943;51.410;7.564;2023-04-06T12:00:29;17.10;;;14.18;;
46222;SDS011;31943;51.410;7.564;2023-04-06T12:02:55;18.42;;;13.63;;
46222;SDS011;31943;51.410;7.564;2023-04-06T12:05:21;13.93;;;12.10;;
46222;SDS011;31943;51.410;7.564;2023-04-06T12:07:48;17.63;;;13.13;;
46222;SDS011;31943;51.410;7.564;2023-04-06T12:10:14;18.48;;;13.15;;
46222;SDS011;31943;51.410;7.564;2023-04-06T12:12:40;16.23;;;12.80;;
46222;SDS011;31943;51.410;7.564;2023-04-06T12:15:06;16.85;;;12.38;;
46222;SDS011;31943;51.410;7.564;2023-04-06T12:17:33;16.00;;;11.43;;
46222;SDS011;31943;51.410;7.564;2023-04-06T12:19:59;15.00;;;10.80;;
46222;SDS011;31943;51.410;7.564;2023-04-06T12:22:25;14.48;;;11.40;;
46222;SDS011;31943;51.410;7.564;2023-04-06T12:24:52;14.90;;;11.30;;
46222;SDS011;31943;51.410;7.564;2023-04-06T12:27:18;16.52;;;11.80;;
46222;SDS011;31943;51.410;7.564;2023-04-06T12:29:44;14.70;;;10.70;;
46222;SDS011;31943;51.410;7.564;2023-04-06T12:32:11;14.35;;;11.10;;
46222;SDS011;31943;51.410;7.564;2023-04-06T12:34:38;15.25;;;10.77;;
46222;SDS011;31943;51.410;7.564;2023-04-06T12:37:03;13.73;;;9.93;;
46222;SDS011;31943;51.410;7.564;2023-04-06T12:39:31;12.43;;;9.95;;
46222;SDS011;31943;51.410;7.564;2023-04-06T12:41:59;13.50;;;10.77;;
46222;SDS011;31943;51.410;7.564;2023-04-06T12:44:27;14.00;;;9.95;;
46222;SDS011;31943;51.410;7.564;2023-04-06T12:46:53;13.73;;;10.13;;
46222;SDS011;31943;51.410;7.564;2023-04-06T12:49:19;13.43;;;9.85;;
46222;SDS011;31943;51.410;7.564;2023-04-06T12:51:46;14.23;;;11.73;;
46222;SDS011;31943;51.410;7.564;2023-04-06T12:54:14;16.73;;;10.27;;
46222;SDS011;31943;51.410;7.564;2023-04-06T12:56:40;12.27;;;9.38;;
46222;SDS011;31943;51.410;7.564;2023-04-06T12:59:08;11.65;;;9.40;;
46222;SDS011;31943;51.410;7.564;2023-04-06T13:01:34;13.73;;;9.55;;
46222;SDS011;31943;51.410;7.564;2023-04-06T13:03:59;12.25;;;9.13;;
46222;SDS011;31943;51.410;7.564;2023-04-06T13:06:28;11.43;;;9.32;;
46222;SDS011;31943;51.410;7.564;2023-04-06T13:08:55;12.30;;;9.07;;
46222;SDS011;31943;51.410;7.564;2023-04-06T13:11:22;11.63;;;9.35;;
46222;SDS011;31943;51.410;7.564;2023-04-06T13:13:51;12.52;;;9.85;;
46222;SDS011;31943;51.410;7.564;2023-04-06T13:16:20;12.35;;;9.65;;
46222;SDS011;31943;51.410;7.564;2023-04-06T13:18:46;11.35;;;9.30;;
46222;SDS011;31943;51.410;7.564;2023-04-06T13:21:13;10.25;;;9.15;;
46222;SDS011;31943;51.410;7.564;2023-04-06T13:23:41;11.60;;;9.27;;
46222;SDS011;31943;51.410;7.564;2023-04-06T13:26:07;12.57;;;9.65;;
46222;SDS011;31943;51.410;7.564;2023-04-06T13:28:34;13.57;;;9.40;;
46222;SDS011;31943;51.410;7.564;2023-04-06T13:31:01;10.65;;;8.90;;
46222;SDS011;31943;51.410;7.564;2023-04-06T13:33:29;11.57;;;9.70;;
46222;SDS011;31943;51.410;7.564;2023-04-06T13:35:56;13.20;;;9.35;;
46222;SDS011;31943;51.410;7.564;2023-04-06T13:38:23;12.15;;;9.40;;
46222;SDS011;31943;51.410;7.564;2023-04-06T13:40:49;9.93;;;8.18;;
46222;SDS011;31943;51.410;7.564;2023-04-06T13:43:15;12.93;;;8.77;;
46222;SDS011;31943;51.410;7.564;2023-04-06T13:45:41;13.45;;;9.20;;
46222;SDS011;31943;51.410;7.564;2023-04-06T13:48:13;12.52;;;9.43;;
46222;SDS011;31943;51.410;7.564;2023-04-06T13:50:40;12.63;;;9.95;;
46222;SDS011;31943;51.410;7.564;2023-04-06T13:53:06;12.18;;;9.40;;
46222;SDS011;31943;51.410;7.564;2023-04-06T13:55:32;12.27;;;9.50;;
46222;SDS011;31943;51.410;7.564;2023-04-06T13:57:58;10.27;;;8.93;;
46222;SDS011;31943;51.410;7.564;2023-04-06T14:00:24;14.10;;;9.25;;
46222;SDS011;31943;51.410;7.564;2023-04-06T14:02:49;9.73;;;7.57;;
46222;SDS011;31943;51.410;7.564;2023-04-06T14:05:15;9.15;;;6.07;;
46222;SDS011;31943;51.410;7.564;2023-04-06T14:07:43;7.13;;;5.18;;
46222;SDS011;31943;51.410;7.564;2023-04-06T14:10:09;6.07;;;4.35;;
46222;SDS011;31943;51.410;7.564;2023-04-06T14:12:35;6.07;;;4.40;;
46222;SDS011;31943;51.410;7.564;2023-04-06T14:15:02;5.28;;;4.18;;
46222;SDS011;31943;51.410;7.564;2023-04-06T14:17:28;6.95;;;3.75;;
46222;SDS011;31943;51.410;7.564;2023-04-06T14:19:54;6.78;;;5.35;;
46222;SDS011;31943;51.410;7.564;2023-04-06T14:22:20;5.72;;;4.40;;
46222;SDS011;31943;51.410;7.564;2023-04-06T14:24:47;6.43;;;4.20;;
46222;SDS011;31943;51.410;7.564;2023-04-06T14:27:13;7.97;;;5.65;;
46222;SDS011;31943;51.410;7.564;2023-04-06T14:29:38;8.02;;;5.75;;
46222;SDS011;31943;51.410;7.564;2023-04-06T14:32:04;9.73;;;6.90;;
46222;SDS011;31943;51.410;7.564;2023-04-06T14:34:30;10.65;;;7.55;;
46222;SDS011;31943;51.410;7.564;2023-04-06T14:36:55;10.32;;;7.32;;